weather.gov     
National Weather Service

Terminal Aerodrome Forecast
NWS Homepage
This page is being discontinued on March 12, 2014.
The same data is available at this site. Please update your bookmarks.
Thank you, and we apologize for the inconvenience.
Please send an email to SR-SRH.Webmaster@noaa.gov with any concerns.


Current Version
Previous Version:    01  02  03  04  05  06  07  08  09  10  11  12  13  14  15  16  17  18  19  20  21  22  23  24  25  26  27  28  29  
[Printable]
026
FTAK31 PAFA 311749
TAFAOM
TAF
PAOM 311749Z 3118/0118 22011KT 2SM -RA BR OVC004
     FM312000 22010KT 4SM -RA BR BKN006 OVC015
     FM010000 24009KT 6SM -SHRA BKN008 OVC020
     FM010800 25006KT 3SM BR VCSH BKN005 BKN030=


026
FTAK31 PAFA 311749
TAFAOM
TAF
PAOM 311749Z 3118/0118 22011KT 2SM -RA BR OVC004
     FM312000 22010KT 4SM -RA BR BKN006 OVC015
     FM010000 24009KT 6SM -SHRA BKN008 OVC020
     FM010800 25006KT 3SM BR VCSH BKN005 BKN030=




U.S. Dept. of Commerce
NOAA National Weather Service
1325 East West Highway
Silver Spring, MD 20910
E-mail: w-nws.webmaster@noaa.gov
Page last modified: May 16, 2007
NATIONAL WEATHER SERVICE: for Safety, for Work, for Fun - FOR LIFE